»·PEaware :: N850VJ KOAK-KSNA

N850VJ :: KOAK-KSNA

FLIGHT INFORMATION

Flight Status: Arrived
Operator: Privately registered:
United States
More flights under this callsign
Pilot: Anonymous 13363 (13363)
Aircraft: Unknown
(TBM9)
More flights by this aircraft type
Origin: KOAK Metro Oakland Intl
United States
Destination: KSNA John Wayne-Orange Co
United States
More flights between these airports :: More routes between these airports
Route: +COAST8 MCKEY TILLT TILLT2
File this flight plan on PilotEdge
Remarks:
Altitude:
(Current/Filed)
31,000ft
Speed:
(Current/Filed)
320kts
Departed: 20-Jan-18 10:12 PM
Arrived: 20-Jan-18 11:29 PM
Distance/Time
Traveled:
323nm/1:17
Distance/Time
To Go:
Arrived

Flight Plot

Page will automatically refresh every two minutes.

Flight plan parsing failed; only flown route is shown


Map Options




Map Legend


Flown Route
Filed Route
Departure Airport
Arrival Airport
Navaid (VOR, NDB)
Fix

Horizontal Profiles

Position Reports

Time Latitude Longitude Heading Altitude Ground
Speed
20-Jan-18 22:03 37.734003 -122.216103 238 7ft 0kts
20-Jan-18 22:04 37.734003 -122.216103 238 7ft 0kts
20-Jan-18 22:05 37.734003 -122.216103 238 7ft 0kts
20-Jan-18 22:06 37.734003 -122.216103 238 7ft 0kts
20-Jan-18 22:07 37.734003 -122.216103 238 7ft 0kts
20-Jan-18 22:08 37.734003 -122.216103 238 7ft 0kts
20-Jan-18 22:09 37.734003 -122.216103 238 7ft 0kts
20-Jan-18 22:10 37.734003 -122.216103 238 7ft 0kts
20-Jan-18 22:11 37.734003 -122.216103 238 7ft 0kts
20-Jan-18 22:12 37.734003 -122.216103 238 7ft 0kts
20-Jan-18 22:13 37.734001 -122.216106 238 7ft 0kts
20-Jan-18 22:14 37.731516 -122.216058 155 7ft 18kts
20-Jan-18 22:15 37.728713 -122.212886 131 7ft 13kts
20-Jan-18 22:16 37.727430 -122.209463 117 7ft 11kts
20-Jan-18 22:17 37.725880 -122.204953 114 7ft 10kts
20-Jan-18 22:18 37.727009 -122.211453 286 18ft 99kts
20-Jan-18 22:19 37.746198 -122.248325 313 1944ft 132kts
20-Jan-18 22:20 37.748067 -122.278942 181 4201ft 133kts
20-Jan-18 22:21 37.710768 -122.273639 175 6358ft 138kts
20-Jan-18 22:22 37.672281 -122.267900 177 8436ft 146kts
20-Jan-18 22:23 37.629469 -122.261865 174 10341ft 164kts
20-Jan-18 22:24 37.584050 -122.254375 175 12408ft 169kts
20-Jan-18 22:25 37.536515 -122.256619 193 14319ft 177kts
20-Jan-18 22:26 37.490097 -122.273875 208 16271ft 178kts
20-Jan-18 22:27 37.442297 -122.294260 208 18308ft 185kts
20-Jan-18 22:28 37.392742 -122.314483 210 20178ft 194kts
20-Jan-18 22:29 37.340115 -122.333490 210 22216ft 202kts
20-Jan-18 22:30 37.291465 -122.361423 227 24133ft 192kts
20-Jan-18 22:31 37.243228 -122.392318 227 25792ft 200kts
20-Jan-18 22:32 37.192492 -122.424900 226 27650ft 208kts
20-Jan-18 22:33 37.140319 -122.458353 226 29318ft 216kts
20-Jan-18 22:34 37.086218 -122.493043 226 30828ft 222kts
20-Jan-18 22:35 37.026843 -122.531571 222 31302ft 271kts
20-Jan-18 22:36 36.949178 -122.566209 189 31316ft 340kts
20-Jan-18 22:37 36.855109 -122.544793 174 31272ft 368kts
20-Jan-18 22:38 36.754559 -122.518472 174 31284ft 374kts
20-Jan-18 22:39 36.652715 -122.491928 174 31285ft 377kts
20-Jan-18 22:40 36.550228 -122.465345 174 31286ft 378kts
20-Jan-18 22:41 36.447735 -122.435464 160 31287ft 386kts
20-Jan-18 22:42 36.367985 -122.347299 128 31291ft 389kts
20-Jan-18 22:43 36.297499 -122.245933 128 31292ft 389kts
20-Jan-18 22:44 36.226855 -122.144212 128 31294ft 390kts
20-Jan-18 22:45 36.156217 -122.042494 128 31296ft 391kts
20-Jan-18 22:46 36.085576 -121.940857 128 31298ft 391kts
20-Jan-18 22:47 36.014766 -121.839124 128 31300ft 391kts
20-Jan-18 22:48 35.943671 -121.737162 128 31302ft 392kts
20-Jan-18 22:49 35.873497 -121.636763 128 31286ft 392kts
20-Jan-18 22:50 35.809238 -121.545049 128 31291ft 390kts
20-Jan-18 22:51 35.738514 -121.444336 128 31266ft 390kts
20-Jan-18 22:52 35.669396 -121.346193 129 31267ft 390kts
20-Jan-18 22:53 35.600114 -121.248059 129 31260ft 389kts
20-Jan-18 22:54 35.529375 -121.148161 129 31262ft 388kts
20-Jan-18 22:55 35.469573 -121.040028 109 31270ft 381kts
20-Jan-18 22:56 35.398686 -120.943110 138 31267ft 389kts
20-Jan-18 22:57 35.317751 -120.855166 138 31268ft 389kts
20-Jan-18 22:58 35.240099 -120.771133 138 31270ft 390kts
20-Jan-18 22:59 35.158860 -120.683596 138 31272ft 390kts
20-Jan-18 23:00 35.077695 -120.596455 138 31274ft 390kts
20-Jan-18 23:01 34.991172 -120.518776 147 31275ft 390kts
20-Jan-18 23:02 34.899809 -120.444476 147 30534ft 407kts
20-Jan-18 23:03 34.805695 -120.368232 147 29684ft 412kts
20-Jan-18 23:04 34.733992 -120.310297 148 29359ft 411kts
20-Jan-18 23:05 34.645931 -120.239480 148 29229ft 403kts
20-Jan-18 23:06 34.553374 -120.165337 148 29233ft 398kts
20-Jan-18 23:07 34.461241 -120.091811 148 29236ft 397kts
20-Jan-18 23:08 34.370791 -120.019817 148 29219ft 397kts
20-Jan-18 23:09 34.293681 -119.958602 148 29018ft 403kts
20-Jan-18 23:10 34.185086 -119.872590 148 28199ft 402kts
20-Jan-18 23:11 34.092163 -119.796943 137 27453ft 404kts
20-Jan-18 23:12 34.038613 -119.706732 117 26864ft 400kts
20-Jan-18 23:13 33.980684 -119.592902 117 26145ft 399kts
20-Jan-18 23:14 33.913410 -119.460271 117 25313ft 397kts
20-Jan-18 23:15 33.867036 -119.367270 116 24647ft 395kts
20-Jan-18 23:16 33.815179 -119.262794 117 23423ft 393kts
20-Jan-18 23:17 33.759582 -119.150939 117 22102ft 388kts
20-Jan-18 23:18 33.704596 -119.040502 117 20979ft 377kts
20-Jan-18 23:19 33.653963 -118.938901 117 18093ft 352kts
20-Jan-18 23:20 33.607444 -118.845785 117 15643ft 296kts
20-Jan-18 23:21 33.571144 -118.763824 95 13922ft 253kts
20-Jan-18 23:22 33.558477 -118.686331 95 12897ft 265kts
20-Jan-18 23:23 33.548597 -118.601405 81 11497ft 266kts
20-Jan-18 23:24 33.551869 -118.519192 81 10127ft 264kts
20-Jan-18 23:25 33.556160 -118.432489 81 8933ft 251kts
20-Jan-18 23:26 33.560628 -118.349959 81 7869ft 259kts
20-Jan-18 23:27 33.565603 -118.272455 81 6455ft 260kts
20-Jan-18 23:28 33.571248 -118.187852 82 4896ft 259kts
20-Jan-18 23:29 33.601235 -118.122866 41 4509ft 236kts
20-Jan-18 23:30 33.649268 -118.069309 41 3553ft 239kts
20-Jan-18 23:31 33.695871 -118.015697 41 3534ft 239kts
20-Jan-18 23:32 33.732608 -117.954409 78 3374ft 231kts
20-Jan-18 23:33 33.727506 -117.883944 99 2089ft 202kts
20-Jan-18 23:34 33.698035 -117.855270 229 832ft 154kts
20-Jan-18 23:35 33.668851 -117.873210 206 59ft 28kts
20-Jan-18 23:36 33.666108 -117.873298 218 59ft 3kts
20-Jan-18 23:37 33.666044 -117.873348 213 59ft 0kts
20-Jan-18 23:38 33.666044 -117.873348 213 59ft 0kts
20-Jan-18 23:39 33.666044 -117.873348 213 59ft 0kts
20-Jan-18 23:40 33.666044 -117.873348 213 59ft 0kts
20-Jan-18 23:41 33.666044 -117.873348 213 59ft 0kts
20-Jan-18 23:42 33.666044 -117.873348 213 59ft 0kts
20-Jan-18 23:43 33.666044 -117.873348 213 59ft 0kts
20-Jan-18 23:44 33.666044 -117.873348 213 59ft 0kts
20-Jan-18 23:45 33.666044 -117.873348 213 59ft 0kts
20-Jan-18 23:46 33.666044 -117.873348 213 59ft 0kts

Navigation Log

Ident Type
Flight plan parsing failed, navigation log unavailable